Wetterdaten: Woche 17.11.25 - 23.11.25 (KW47)
Datum Zeit Temp. Aussen Temp. o. S. Temp +5cm Feuchte Auss Luftdruck Regen Sonnenschein Regendauer Solar Windböen Empfang
17.11.2025 00:00 2,9 °C 1,8 °C -0,8 °C 95 % 1010,4 hPa 0,0 l/m² 0,00 h 0,00 h 0 W/m² 2,8 km/h (1 Bft) 94,13 %
17.11.2025 01:00 2,3 °C 1,4 °C -1,1 °C 95 % 1010,3 hPa 0,0 l/m² 0,00 h 0,00 h 0 W/m² 1,4 km/h (1 Bft) 96,20 %
17.11.2025 02:00 1,9 °C 0,9 °C -1,4 °C 96 % 1010,4 hPa 0,0 l/m² 0,00 h 0,00 h 0 W/m² 0,3 km/h (0 Bft) 95,61 %
17.11.2025 03:00 1,8 °C 1,3 °C -1,0 °C 96 % 1010,2 hPa 0,0 l/m² 0,00 h 0,00 h 0 W/m² 1,7 km/h (1 Bft) 96,09 %
17.11.2025 04:00 2,1 °C 1,6 °C -0,9 °C 96 % 1009,7 hPa 0,0 l/m² 0,00 h 0,00 h 0 W/m² 0,7 km/h (0 Bft) 99,00 %
17.11.2025 05:00 3,0 °C 2,7 °C 0,1 °C 97 % 1009,7 hPa 0,5 l/m² 0,00 h 0,13 h 0 W/m² 6,8 km/h (2 Bft) 96,78 %
17.11.2025 06:00 3,7 °C 3,3 °C 0,6 °C 97 % 1009,8 hPa 0,0 l/m² 0,00 h 0,17 h 0 W/m² 5,5 km/h (1 Bft) 95,99 %
17.11.2025 07:00 3,9 °C 3,3 °C 0,6 °C 98 % 1010,3 hPa 0,0 l/m² 0,00 h 0,00 h 0 W/m² 6,6 km/h (2 Bft) 96,28 %
17.11.2025 08:00 4,4 °C 4,1 °C 1,0 °C 98 % 1010,9 hPa 0,0 l/m² 0,00 h 0,00 h 14 W/m² 8,0 km/h (2 Bft) 98,65 %
17.11.2025 09:00 4,8 °C 5,2 °C 1,6 °C 98 % 1011,7 hPa 0,2 l/m² 0,17 h 0,17 h 69 W/m² 14,3 km/h (3 Bft) 97,71 %
17.11.2025 10:00 5,3 °C 5,7 °C 2,2 °C 98 % 1012,4 hPa 0,5 l/m² 0,20 h 0,13 h 77 W/m² 14,7 km/h (3 Bft) 95,86 %
17.11.2025 11:00 5,5 °C 7,7 °C 2,3 °C 96 % 1013,0 hPa 0,0 l/m² 0,17 h 0,00 h 129 W/m² 16,4 km/h (3 Bft) 98,50 %
17.11.2025 12:00 6,7 °C 11,0 °C 3,4 °C 90 % 1013,5 hPa 0,0 l/m² 0,63 h 0,00 h 226 W/m² 20,1 km/h (4 Bft) 98,48 %
17.11.2025 13:00 7,8 °C 12,6 °C 3,3 °C 79 % 1014,2 hPa 0,0 l/m² 0,87 h 0,00 h 277 W/m² 22,1 km/h (4 Bft) 95,16 %
17.11.2025 14:00 6,6 °C 7,1 °C 2,0 °C 80 % 1015,1 hPa 0,2 l/m² 0,37 h 0,23 h 122 W/m² 20,6 km/h (4 Bft) 98,18 %
17.11.2025 15:00 4,6 °C 4,1 °C 0,5 °C 89 % 1016,3 hPa 0,2 l/m² 0,20 h 0,07 h 42 W/m² 11,1 km/h (2 Bft) 98,61 %
17.11.2025 16:00 4,2 °C 3,1 °C -0,1 °C 91 % 1017,4 hPa 0,0 l/m² 0,00 h 0,00 h 12 W/m² 3,8 km/h (1 Bft) 96,57 %
17.11.2025 17:00 3,4 °C 2,2 °C -0,9 °C 92 % 1018,6 hPa 0,0 l/m² 0,00 h 0,00 h 0 W/m² 2,0 km/h (1 Bft) 95,14 %
17.11.2025 18:00 2,6 °C 1,5 °C -1,3 °C 93 % 1019,8 hPa 0,0 l/m² 0,00 h 0,00 h 0 W/m² 1,9 km/h (1 Bft) 97,53 %
17.11.2025 19:00 2,1 °C 1,1 °C -1,8 °C 93 % 1020,7 hPa 0,0 l/m² 0,00 h 0,00 h 0 W/m² 0,8 km/h (0 Bft) 99,27 %
17.11.2025 20:00 2,1 °C 1,3 °C -1,7 °C 94 % 1021,3 hPa 0,0 l/m² 0,00 h 0,00 h 0 W/m² 0,2 km/h (0 Bft) 95,08 %
17.11.2025 21:00 2,0 °C 0,9 °C -1,9 °C 94 % 1021,6 hPa 0,0 l/m² 0,00 h 0,00 h 0 W/m² 0,0 km/h (0 Bft) 98,11 %
17.11.2025 22:00 1,6 °C 0,6 °C -2,2 °C 94 % 1021,8 hPa 0,0 l/m² 0,00 h 0,00 h 0 W/m² 0,0 km/h (0 Bft) 98,06 %
17.11.2025 23:00 1,5 °C 0,6 °C -2,1 °C 95 % 1022,1 hPa 0,0 l/m² 0,00 h 0,00 h 0 W/m² 1,2 km/h (1 Bft) 97,01 %
18.11.2025 00:00 1,3 °C 0,6 °C -2,2 °C 95 % 1022,4 hPa 0,0 l/m² 0,00 h 0,00 h 0 W/m² 1,3 km/h (1 Bft) 91,87 %
18.11.2025 01:00 1,3 °C 0,6 °C -2,1 °C 96 % 1022,2 hPa 0,0 l/m² 0,00 h 0,00 h 0 W/m² 3,6 km/h (1 Bft) 98,70 %
18.11.2025 02:00 1,2 °C 0,6 °C -1,9 °C 96 % 1021,9 hPa 0,0 l/m² 0,00 h 0,00 h 0 W/m² 1,7 km/h (1 Bft) 96,86 %
18.11.2025 03:00 1,3 °C 0,6 °C -2,1 °C 96 % 1021,9 hPa 0,0 l/m² 0,00 h 0,00 h 0 W/m² 0,9 km/h (0 Bft) 97,01 %
18.11.2025 04:00 1,3 °C 0,6 °C -1,8 °C 96 % 1021,3 hPa 0,2 l/m² 0,00 h 0,00 h 0 W/m² 0,4 km/h (0 Bft) 96,95 %
18.11.2025 05:00 1,4 °C 0,7 °C -1,7 °C 96 % 1021,1 hPa 0,0 l/m² 0,00 h 0,00 h 0 W/m² 2,0 km/h (1 Bft) 99,15 %
18.11.2025 06:00 1,6 °C 1,1 °C -1,5 °C 97 % 1020,9 hPa 0,0 l/m² 0,00 h 0,00 h 0 W/m² 1,1 km/h (1 Bft) 95,11 %
18.11.2025 07:00 1,6 °C 1,1 °C -1,6 °C 97 % 1020,8 hPa 0,0 l/m² 0,00 h 0,00 h 0 W/m² 0,5 km/h (0 Bft) 98,01 %
18.11.2025 08:00 2,0 °C 2,0 °C -0,7 °C 97 % 1020,7 hPa 0,0 l/m² 0,03 h 0,00 h 26 W/m² 8,5 km/h (2 Bft) 97,50 %
18.11.2025 09:00 2,9 °C 3,1 °C 0,0 °C 97 % 1020,4 hPa 0,0 l/m² 0,00 h 0,00 h 41 W/m² 12,2 km/h (3 Bft) 96,05 %
18.11.2025 10:00 3,7 °C 3,6 °C 0,7 °C 96 % 1020,2 hPa 0,0 l/m² 0,00 h 0,00 h 42 W/m² 10,4 km/h (2 Bft) 95,76 %
18.11.2025 11:00 4,2 °C 4,1 °C 1,2 °C 96 % 1019,8 hPa 0,0 l/m² 0,03 h 0,00 h 61 W/m² 8,4 km/h (2 Bft) 97,30 %
18.11.2025 12:00 5,7 °C 9,2 °C 2,9 °C 94 % 1018,6 hPa 0,0 l/m² 0,70 h 0,00 h 241 W/m² 12,2 km/h (2 Bft) 98,52 %
18.11.2025 13:00 6,4 °C 6,7 °C 3,2 °C 89 % 1017,6 hPa 0,0 l/m² 0,10 h 0,00 h 107 W/m² 11,4 km/h (2 Bft) 97,29 %
18.11.2025 14:00 7,0 °C 7,8 °C 3,5 °C 86 % 1016,6 hPa 0,0 l/m² 0,43 h 0,00 h 132 W/m² 15,5 km/h (3 Bft) 97,45 %
18.11.2025 15:00 6,5 °C 6,1 °C 2,8 °C 85 % 1015,9 hPa 0,0 l/m² 0,00 h 0,00 h 35 W/m² 22,0 km/h (4 Bft) 97,42 %
18.11.2025 16:00 5,8 °C 5,3 °C 1,8 °C 88 % 1015,1 hPa 0,0 l/m² 0,00 h 0,13 h 9 W/m² 21,0 km/h (4 Bft) 98,17 %
18.11.2025 17:00 5,1 °C 4,4 °C 0,7 °C 89 % 1014,7 hPa 0,0 l/m² 0,00 h 0,27 h 0 W/m² 23,5 km/h (4 Bft) 97,00 %
18.11.2025 18:00 4,7 °C 4,2 °C 0,7 °C 90 % 1014,3 hPa 0,0 l/m² 0,00 h 0,13 h 0 W/m² 22,4 km/h (4 Bft) 98,30 %
18.11.2025 19:00 4,0 °C 3,3 °C 0,1 °C 91 % 1014,0 hPa 0,0 l/m² 0,00 h 0,00 h 0 W/m² 14,9 km/h (3 Bft) 95,69 %
18.11.2025 20:00 4,0 °C 3,3 °C 0,6 °C 93 % 1013,4 hPa 0,0 l/m² 0,00 h 0,00 h 0 W/m² 14,9 km/h (3 Bft) 97,43 %
18.11.2025 21:00 4,1 °C 3,8 °C 0,6 °C 93 % 1012,9 hPa 0,0 l/m² 0,00 h 0,00 h 0 W/m² 13,2 km/h (3 Bft) 95,69 %
18.11.2025 22:00 4,1 °C 3,8 °C 0,6 °C 92 % 1012,4 hPa 0,0 l/m² 0,00 h 0,00 h 0 W/m² 14,9 km/h (3 Bft) 96,33 %
18.11.2025 23:00 4,2 °C 3,8 °C 0,6 °C 91 % 1011,6 hPa 0,0 l/m² 0,00 h 0,00 h 0 W/m² 14,9 km/h (3 Bft) 98,94 %
19.11.2025 00:00 4,1 °C 3,5 °C 0,3 °C 91 % 1010,8 hPa 0,0 l/m² 0,00 h 0,00 h 0 W/m² 15,5 km/h (3 Bft) 96,58 %
19.11.2025 01:00 4,5 °C 3,9 °C 0,5 °C 92 % 1010,0 hPa 0,0 l/m² 0,00 h 0,07 h 0 W/m² 17,0 km/h (3 Bft) 97,69 %
19.11.2025 02:00 4,7 °C 4,2 °C 0,9 °C 92 % 1009,2 hPa 0,0 l/m² 0,00 h 0,00 h 0 W/m² 19,5 km/h (3 Bft) 97,64 %
19.11.2025 03:00 5,0 °C 4,4 °C 1,1 °C 90 % 1008,1 hPa 0,0 l/m² 0,00 h 0,00 h 0 W/m² 17,1 km/h (3 Bft) 97,70 %
19.11.2025 04:00 5,0 °C 4,4 °C 1,1 °C 90 % 1007,3 hPa 0,0 l/m² 0,00 h 0,00 h 0 W/m² 16,0 km/h (3 Bft) 96,12 %
19.11.2025 05:00 5,1 °C 4,4 °C 1,1 °C 89 % 1006,7 hPa 0,0 l/m² 0,00 h 0,00 h 0 W/m² 19,3 km/h (3 Bft) 96,40 %
19.11.2025 06:00 5,0 °C 4,4 °C 1,1 °C 89 % 1006,0 hPa 0,0 l/m² 0,00 h 0,00 h 0 W/m² 18,2 km/h (3 Bft) 97,38 %
19.11.2025 07:00 4,8 °C 4,2 °C 1,1 °C 89 % 1005,4 hPa 0,0 l/m² 0,00 h 0,00 h 0 W/m² 15,7 km/h (3 Bft) 97,66 %
19.11.2025 08:00 4,7 °C 4,1 °C 0,9 °C 90 % 1005,2 hPa 0,0 l/m² 0,00 h 0,00 h 7 W/m² 10,6 km/h (2 Bft) 96,60 %
19.11.2025 09:00 4,9 °C 4,6 °C 1,2 °C 91 % 1004,7 hPa 0,0 l/m² 0,00 h 0,00 h 27 W/m² 10,8 km/h (2 Bft) 98,42 %
19.11.2025 10:00 5,3 °C 5,1 °C 1,7 °C 90 % 1004,4 hPa 0,0 l/m² 0,00 h 0,00 h 42 W/m² 16,9 km/h (3 Bft) 96,34 %
19.11.2025 11:00 5,7 °C 5,3 °C 1,7 °C 89 % 1003,8 hPa 0,0 l/m² 0,00 h 0,00 h 36 W/m² 17,2 km/h (3 Bft) 97,88 %
19.11.2025 12:00 5,4 °C 4,7 °C 0,9 °C 90 % 1003,2 hPa 0,2 l/m² 0,00 h 0,37 h 47 W/m² 18,7 km/h (3 Bft) 96,01 %
19.11.2025 13:00 5,0 °C 4,2 °C 0,6 °C 93 % 1002,5 hPa 1,0 l/m² 0,00 h 0,53 h 30 W/m² 11,0 km/h (2 Bft) 96,45 %
19.11.2025 14:00 4,6 °C 3,9 °C 0,6 °C 95 % 1001,8 hPa 1,0 l/m² 0,00 h 0,53 h 23 W/m² 13,4 km/h (3 Bft) 96,91 %
19.11.2025 15:00 4,4 °C 3,5 °C 0,2 °C 95 % 1001,4 hPa 1,4 l/m² 0,00 h 0,83 h 13 W/m² 9,9 km/h (2 Bft) 97,52 %
19.11.2025 16:00 4,2 °C 3,3 °C 0,0 °C 95 % 1001,1 hPa 1,9 l/m² 0,00 h 0,80 h 8 W/m² 5,8 km/h (2 Bft) 96,31 %
19.11.2025 17:00 4,2 °C 3,3 °C 0,5 °C 96 % 1000,8 hPa 1,0 l/m² 0,00 h 0,35 h 0 W/m² 7,3 km/h (2 Bft) 97,96 %
19.11.2025 18:00 4,2 °C 3,3 °C 0,6 °C 97 % 1000,7 hPa 1,0 l/m² 0,00 h 0,23 h 0 W/m² 7,3 km/h (2 Bft) 97,08 %
19.11.2025 19:00 4,0 °C 3,3 °C 0,3 °C 97 % 1000,6 hPa 0,7 l/m² 0,00 h 0,30 h 0 W/m² 4,3 km/h (1 Bft) 96,57 %
19.11.2025 20:00 3,9 °C 3,3 °C 0,6 °C 97 % 1000,7 hPa 1,0 l/m² 0,00 h 0,53 h 0 W/m² 4,0 km/h (1 Bft) 98,98 %
19.11.2025 21:00 3,7 °C 2,9 °C -0,1 °C 97 % 1001,0 hPa 1,9 l/m² 0,00 h 0,90 h 0 W/m² 12,7 km/h (3 Bft) 97,20 %
19.11.2025 22:00 2,9 °C 2,2 °C -0,6 °C 97 % 1001,4 hPa 1,0 l/m² 0,00 h 0,57 h 0 W/m² 9,9 km/h (2 Bft) 97,47 %
19.11.2025 23:00 3,1 °C 2,7 °C -0,4 °C 98 % 1001,8 hPa 1,2 l/m² 0,00 h 0,70 h 0 W/m² 9,0 km/h (2 Bft) 96,77 %
20.11.2025 00:00 3,3 °C 2,8 °C -0,3 °C 98 % 1002,5 hPa 0,5 l/m² 0,00 h 0,03 h 0 W/m² 13,1 km/h (3 Bft) 95,92 %
20.11.2025 01:00 2,7 °C 2,2 °C -1,0 °C 98 % 1003,1 hPa 0,0 l/m² 0,00 h 0,00 h 0 W/m² 13,0 km/h (3 Bft) 96,20 %
20.11.2025 02:00 2,3 °C 1,8 °C -1,1 °C 97 % 1004,0 hPa 0,0 l/m² 0,00 h 0,00 h 0 W/m² 14,1 km/h (3 Bft) 95,98 %
20.11.2025 03:00 2,5 °C 2,2 °C -1,1 °C 98 % 1004,9 hPa 0,0 l/m² 0,00 h 0,00 h 0 W/m² 11,6 km/h (2 Bft) 99,10 %
20.11.2025 04:00 2,3 °C 1,9 °C -1,1 °C 97 % 1005,7 hPa 0,0 l/m² 0,00 h 0,00 h 0 W/m² 7,6 km/h (2 Bft) 93,54 %
20.11.2025 05:00 1,9 °C 1,2 °C -1,6 °C 97 % 1006,5 hPa 0,0 l/m² 0,00 h 0,00 h 0 W/m² 3,1 km/h (1 Bft) 97,79 %
20.11.2025 06:00 1,3 °C 0,8 °C -1,9 °C 97 % 1007,2 hPa 0,0 l/m² 0,00 h 0,00 h 0 W/m² 1,8 km/h (1 Bft) 97,31 %
20.11.2025 07:00 1,4 °C 0,8 °C -1,8 °C 97 % 1007,8 hPa 0,0 l/m² 0,00 h 0,00 h 0 W/m² 1,4 km/h (1 Bft) 98,06 %
20.11.2025 08:00 1,1 °C 0,5 °C -2,2 °C 97 % 1008,6 hPa 0,0 l/m² 0,00 h 0,00 h 13 W/m² 0,0 km/h (0 Bft) 95,34 %
20.11.2025 09:00 1,2 °C 1,0 °C -2,0 °C 97 % 1009,3 hPa 0,0 l/m² 0,00 h 0,00 h 41 W/m² 2,3 km/h (1 Bft) 97,13 %
20.11.2025 10:00 2,1 °C 2,5 °C -1,0 °C 98 % 1010,1 hPa 0,0 l/m² 0,03 h 0,00 h 80 W/m² 8,4 km/h (2 Bft) 99,50 %
20.11.2025 11:00 3,2 °C 6,6 °C 0,3 °C 97 % 1010,7 hPa 0,0 l/m² 0,70 h 0,00 h 221 W/m² 8,8 km/h (2 Bft) 95,24 %
20.11.2025 12:00 4,8 °C 10,8 °C 1,1 °C 92 % 1010,5 hPa 0,0 l/m² 0,87 h 0,00 h 326 W/m² 11,2 km/h (2 Bft) 95,40 %
20.11.2025 13:00 4,0 °C 5,2 °C 0,9 °C 89 % 1010,8 hPa 0,0 l/m² 0,20 h 0,00 h 172 W/m² 13,5 km/h (3 Bft) 96,74 %
20.11.2025 14:00 4,4 °C 5,3 °C 1,1 °C 87 % 1011,0 hPa 0,0 l/m² 0,43 h 0,00 h 122 W/m² 5,5 km/h (1 Bft) 97,60 %
20.11.2025 15:00 4,2 °C 3,9 °C 0,8 °C 87 % 1011,4 hPa 0,0 l/m² 0,10 h 0,00 h 35 W/m² 4,3 km/h (1 Bft) 98,28 %
20.11.2025 16:00 3,7 °C 2,5 °C -0,5 °C 85 % 1011,7 hPa 0,0 l/m² 0,00 h 0,00 h 11 W/m² 3,0 km/h (1 Bft) 98,31 %
20.11.2025 17:00 2,6 °C 0,5 °C -2,1 °C 86 % 1012,2 hPa 0,0 l/m² 0,00 h 0,00 h 0 W/m² 0,0 km/h (0 Bft) 95,25 %
20.11.2025 18:00 2,1 °C 1,6 °C -1,3 °C 90 % 1012,9 hPa 0,0 l/m² 0,00 h 0,00 h 0 W/m² 0,0 km/h (0 Bft) 98,91 %
20.11.2025 19:00 2,4 °C 2,2 °C -1,1 °C 92 % 1013,6 hPa 0,0 l/m² 0,00 h 0,00 h 0 W/m² 0,0 km/h (0 Bft) 95,30 %
20.11.2025 20:00 2,7 °C 1,9 °C -1,2 °C 93 % 1014,0 hPa 0,2 l/m² 0,00 h 0,23 h 0 W/m² 2,6 km/h (1 Bft) 97,80 %
20.11.2025 21:00 2,0 °C 1,1 °C -1,8 °C 95 % 1014,4 hPa 0,2 l/m² 0,00 h 0,00 h 0 W/m² 3,8 km/h (1 Bft) 96,56 %
20.11.2025 22:00 1,5 °C 0,6 °C -2,2 °C 95 % 1014,8 hPa 0,0 l/m² 0,00 h 0,00 h 0 W/m² 1,1 km/h (0 Bft) 97,81 %
20.11.2025 23:00 1,3 °C 0,4 °C -2,2 °C 96 % 1015,3 hPa 0,0 l/m² 0,00 h 0,00 h 0 W/m² 0,0 km/h (0 Bft) 99,02 %
21.11.2025 00:00 1,3 °C 0,6 °C -2,1 °C 96 % 1015,7 hPa 0,0 l/m² 0,00 h 0,00 h 0 W/m² 0,0 km/h (0 Bft) 90,22 %
21.11.2025 01:00 1,3 °C 0,6 °C -2,2 °C 96 % 1016,1 hPa 0,0 l/m² 0,00 h 0,00 h 0 W/m² 0,0 km/h (0 Bft) 99,45 %
21.11.2025 02:00 1,1 °C 0,1 °C -2,5 °C 97 % 1016,6 hPa 0,0 l/m² 0,00 h 0,00 h 0 W/m² 0,1 km/h (0 Bft) 97,33 %
21.11.2025 03:00 1,1 °C 0,6 °C -2,2 °C 97 % 1017,1 hPa 0,0 l/m² 0,00 h 0,00 h 0 W/m² 0,3 km/h (0 Bft) 95,79 %
21.11.2025 04:00 1,4 °C 0,9 °C -1,7 °C 97 % 1017,9 hPa 0,0 l/m² 0,00 h 0,00 h 0 W/m² 0,6 km/h (0 Bft) 97,12 %
21.11.2025 05:00 1,6 °C 1,1 °C -1,7 °C 97 % 1018,6 hPa 0,0 l/m² 0,00 h 0,00 h 0 W/m² 0,1 km/h (0 Bft) 96,18 %
21.11.2025 06:00 1,2 °C 0,2 °C -2,2 °C 97 % 1019,5 hPa 0,0 l/m² 0,00 h 0,00 h 0 W/m² 0,2 km/h (0 Bft) 97,52 %
21.11.2025 07:00 0,2 °C -1,4 °C -3,6 °C 97 % 1020,3 hPa 0,0 l/m² 0,00 h 0,00 h 0 W/m² 0,0 km/h (0 Bft) 96,79 %
21.11.2025 08:00 -0,6 °C -1,5 °C -3,9 °C 97 % 1021,6 hPa 0,0 l/m² 0,00 h 0,00 h 13 W/m² 0,1 km/h (0 Bft) 98,40 %
21.11.2025 09:00 -0,5 °C -0,2 °C -3,0 °C 97 % 1022,7 hPa 0,0 l/m² 0,00 h 0,00 h 35 W/m² 0,1 km/h (0 Bft) 97,10 %
21.11.2025 10:00 1,6 °C 3,8 °C -1,7 °C 98 % 1023,4 hPa 0,0 l/m² 0,80 h 0,00 h 203 W/m² 1,7 km/h (1 Bft) 98,79 %
21.11.2025 11:00 3,9 °C 11,4 °C -0,6 °C 93 % 1024,1 hPa 0,0 l/m² 0,77 h 0,00 h 216 W/m² 5,7 km/h (1 Bft) 97,91 %
21.11.2025 12:00 5,2 °C 14,6 °C 0,2 °C 85 % 1024,4 hPa 0,0 l/m² 0,97 h 0,00 h 306 W/m² 4,8 km/h (1 Bft) 97,49 %
21.11.2025 13:00 6,2 °C 14,0 °C 0,6 °C 72 % 1024,7 hPa 0,0 l/m² 1,03 h 0,00 h 295 W/m² 7,5 km/h (2 Bft) 97,45 %
21.11.2025 14:00 5,9 °C 10,5 °C 0,1 °C 68 % 1024,8 hPa 0,0 l/m² 1,00 h 0,00 h 210 W/m² 8,4 km/h (2 Bft) 96,41 %
21.11.2025 15:00 4,3 °C 3,3 °C -0,8 °C 69 % 1025,3 hPa 0,0 l/m² 0,17 h 0,00 h 37 W/m² 5,9 km/h (2 Bft) 94,92 %
21.11.2025 16:00 3,0 °C 0,9 °C -2,7 °C 72 % 1026,1 hPa 0,0 l/m² 0,00 h 0,00 h 10 W/m² 0,2 km/h (0 Bft) 95,82 %
21.11.2025 17:00 1,3 °C -1,3 °C -4,5 °C 76 % 1026,6 hPa 0,0 l/m² 0,00 h 0,00 h 0 W/m² 0,0 km/h (0 Bft) 98,39 %
21.11.2025 18:00 -0,3 °C -2,1 °C -5,2 °C 80 % 1027,2 hPa 0,0 l/m² 0,00 h 0,00 h 0 W/m² 0,0 km/h (0 Bft) 96,31 %
21.11.2025 19:00 -1,4 °C -2,7 °C -5,6 °C 83 % 1027,8 hPa 0,0 l/m² 0,00 h 0,00 h 0 W/m² 0,0 km/h (0 Bft) 97,16 %
21.11.2025 20:00 -2,1 °C -3,2 °C -5,9 °C 87 % 1028,3 hPa 0,0 l/m² 0,00 h 0,00 h 0 W/m² 0,0 km/h (0 Bft) 95,76 %
21.11.2025 21:00 -2,6 °C -3,5 °C -6,1 °C 89 % 1028,7 hPa 0,0 l/m² 0,00 h 0,00 h 0 W/m² 0,0 km/h (0 Bft) 94,80 %
21.11.2025 22:00 -2,5 °C -2,8 °C -5,8 °C 91 % 1029,1 hPa 0,0 l/m² 0,00 h 0,00 h 0 W/m² 0,2 km/h (0 Bft) 97,75 %
21.11.2025 23:00 -1,9 °C -2,3 °C -5,5 °C 92 % 1029,0 hPa 0,0 l/m² 0,00 h 0,00 h 0 W/m² 1,0 km/h (0 Bft) 95,98 %
22.11.2025 00:00 -1,5 °C -1,8 °C -4,5 °C 92 % 1029,0 hPa 0,0 l/m² 0,00 h 0,00 h 0 W/m² 2,1 km/h (1 Bft) 96,44 %
22.11.2025 01:00 -1,0 °C -1,2 °C -4,4 °C 92 % 1028,9 hPa 0,0 l/m² 0,00 h 0,00 h 0 W/m² 1,4 km/h (1 Bft) 98,08 %
22.11.2025 02:00 -0,8 °C -1,2 °C -4,1 °C 91 % 1028,7 hPa 0,0 l/m² 0,00 h 0,00 h 0 W/m² 2,0 km/h (1 Bft) 98,65 %
22.11.2025 03:00 -0,7 °C -1,1 °C -3,9 °C 91 % 1028,5 hPa 0,0 l/m² 0,00 h 0,00 h 0 W/m² 2,8 km/h (1 Bft) 95,59 %
22.11.2025 04:00 -0,7 °C -1,1 °C -3,9 °C 91 % 1028,4 hPa 0,0 l/m² 0,00 h 0,00 h 0 W/m² 3,2 km/h (1 Bft) 98,62 %
22.11.2025 05:00 -0,8 °C -1,6 °C -4,2 °C 91 % 1028,6 hPa 0,0 l/m² 0,00 h 0,00 h 0 W/m² 5,2 km/h (1 Bft) 95,43 %
22.11.2025 06:00 -1,4 °C -2,4 °C -5,0 °C 92 % 1028,5 hPa 0,0 l/m² 0,00 h 0,00 h 0 W/m² 11,6 km/h (2 Bft) 97,63 %
22.11.2025 07:00 -2,1 °C -3,0 °C -5,6 °C 92 % 1028,4 hPa 0,0 l/m² 0,00 h 0,00 h 0 W/m² 5,9 km/h (2 Bft) 96,81 %
22.11.2025 08:00 -2,4 °C -3,1 °C -5,6 °C 93 % 1028,4 hPa 0,0 l/m² 0,00 h 0,00 h 15 W/m² 8,0 km/h (2 Bft) 95,17 %
22.11.2025 09:00 -2,0 °C -1,8 °C -5,0 °C 94 % 1028,6 hPa 0,0 l/m² 0,00 h 0,00 h 55 W/m² 8,2 km/h (2 Bft) 95,63 %
22.11.2025 10:00 -0,1 °C 1,2 °C -3,4 °C 93 % 1028,3 hPa 0,0 l/m² 0,97 h 0,00 h 214 W/m² 10,0 km/h (2 Bft) 94,50 %
22.11.2025 11:00 1,5 °C 4,2 °C -2,1 °C 85 % 1027,8 hPa 0,0 l/m² 0,87 h 0,00 h 191 W/m² 11,6 km/h (2 Bft) 94,95 %
22.11.2025 12:00 1,9 °C 3,8 °C -1,7 °C 81 % 1027,0 hPa 0,0 l/m² 1,00 h 0,00 h 195 W/m² 14,3 km/h (3 Bft) 96,51 %
22.11.2025 13:00 2,7 °C 5,3 °C -1,2 °C 78 % 1026,3 hPa 0,0 l/m² 1,00 h 0,00 h 220 W/m² 12,7 km/h (3 Bft) 97,64 %
22.11.2025 14:00 3,6 °C 5,6 °C -1,1 °C 73 % 1025,6 hPa 0,0 l/m² 1,00 h 0,00 h 189 W/m² 13,9 km/h (3 Bft) 97,30 %
22.11.2025 15:00 3,2 °C 2,6 °C -1,6 °C 74 % 1024,7 hPa 0,0 l/m² 0,53 h 0,00 h 67 W/m² 12,6 km/h (3 Bft) 96,35 %
22.11.2025 16:00 2,4 °C 1,6 °C -2,0 °C 78 % 1023,9 hPa 0,0 l/m² 0,33 h 0,00 h 20 W/m² 14,0 km/h (3 Bft) 98,25 %
22.11.2025 17:00 1,6 °C 0,8 °C -2,8 °C 77 % 1023,4 hPa 0,0 l/m² 0,00 h 0,00 h 0 W/m² 9,9 km/h (2 Bft) 95,21 %
22.11.2025 18:00 1,0 °C 0,1 °C -3,3 °C 74 % 1022,9 hPa 0,0 l/m² 0,00 h 0,00 h 0 W/m² 11,5 km/h (2 Bft) 99,18 %
22.11.2025 19:00 0,5 °C -0,4 °C -3,9 °C 77 % 1022,5 hPa 0,0 l/m² 0,00 h 0,00 h 0 W/m² 15,4 km/h (3 Bft) 96,15 %
22.11.2025 20:00 0,2 °C -0,7 °C -4,1 °C 78 % 1022,1 hPa 0,0 l/m² 0,00 h 0,00 h 0 W/m² 14,1 km/h (3 Bft) 95,06 %
22.11.2025 21:00 -0,2 °C -1,1 °C -4,4 °C 79 % 1021,4 hPa 0,0 l/m² 0,00 h 0,00 h 0 W/m² 16,2 km/h (3 Bft) 95,82 %
22.11.2025 22:00 -0,6 °C -1,5 °C -4,8 °C 79 % 1020,8 hPa 0,0 l/m² 0,00 h 0,00 h 0 W/m² 16,0 km/h (3 Bft) 98,37 %
22.11.2025 23:00 -0,9 °C -1,7 °C -5,0 °C 81 % 1020,1 hPa 0,0 l/m² 0,00 h 0,00 h 0 W/m² 15,2 km/h (3 Bft) 95,08 %
23.11.2025 00:00 -1,1 °C -1,7 °C -5,0 °C 83 % 1019,5 hPa 0,0 l/m² 0,00 h 0,00 h 0 W/m² 15,8 km/h (3 Bft) 96,35 %
23.11.2025 01:00 -1,2 °C -2,0 °C -5,4 °C 83 % 1018,8 hPa 0,0 l/m² 0,00 h 0,00 h 0 W/m² 15,1 km/h (3 Bft) 97,43 %
23.11.2025 02:00 -1,4 °C -2,2 °C -5,6 °C 83 % 1018,1 hPa 0,0 l/m² 0,00 h 0,00 h 0 W/m² 16,8 km/h (3 Bft) 95,13 %
23.11.2025 03:00 -1,5 °C -2,2 °C -5,6 °C 82 % 1016,9 hPa 0,0 l/m² 0,00 h 0,00 h 0 W/m² 18,7 km/h (3 Bft) 97,12 %
23.11.2025 04:00 -1,2 °C -1,8 °C -5,2 °C 80 % 1015,9 hPa 0,0 l/m² 0,00 h 0,00 h 0 W/m² 20,6 km/h (4 Bft) 97,28 %
23.11.2025 05:00 -1,1 °C -1,7 °C -5,0 °C 78 % 1015,3 hPa 0,0 l/m² 0,00 h 0,00 h 0 W/m² 24,0 km/h (4 Bft) 96,54 %
23.11.2025 06:00 -1,2 °C -1,7 °C -5,1 °C 78 % 1014,6 hPa 0,0 l/m² 0,00 h 0,00 h 0 W/m² 21,5 km/h (4 Bft) 97,49 %
23.11.2025 07:00 -1,1 °C -1,7 °C -5,0 °C 79 % 1014,2 hPa 0,0 l/m² 0,00 h 0,00 h 0 W/m² 17,8 km/h (3 Bft) 95,52 %
23.11.2025 08:00 -1,1 °C -1,6 °C -5,0 °C 81 % 1013,3 hPa 0,0 l/m² 0,00 h 0,00 h 8 W/m² 18,9 km/h (3 Bft) 95,69 %
23.11.2025 09:00 -0,5 °C -0,5 °C -4,2 °C 77 % 1012,2 hPa 0,0 l/m² 0,00 h 0,00 h 58 W/m² 20,0 km/h (4 Bft) 97,06 %
23.11.2025 10:00 0,3 °C 0,4 °C -3,5 °C 73 % 1011,5 hPa 0,0 l/m² 0,07 h 0,00 h 102 W/m² 22,3 km/h (4 Bft) 97,93 %
23.11.2025 11:00 1,3 °C 3,6 °C -2,9 °C 70 % 1009,8 hPa 0,0 l/m² 0,77 h 0,00 h 197 W/m² 24,9 km/h (4 Bft) 96,29 %
23.11.2025 12:00 2,1 °C 4,1 °C -2,2 °C 67 % 1007,9 hPa 0,0 l/m² 0,67 h 0,00 h 206 W/m² 26,7 km/h (4 Bft) 96,68 %
23.11.2025 13:00 3,0 °C 4,6 °C -1,4 °C 64 % 1006,0 hPa 0,0 l/m² 0,53 h 0,00 h 207 W/m² 25,3 km/h (4 Bft) 97,29 %
23.11.2025 14:00 3,3 °C 3,2 °C -1,1 °C 65 % 1004,4 hPa 0,0 l/m² 0,27 h 0,00 h 77 W/m² 22,2 km/h (4 Bft) 94,97 %
23.11.2025 15:00 3,0 °C 2,4 °C -1,9 °C 72 % 1003,1 hPa 0,0 l/m² 0,00 h 0,00 h 19 W/m² 24,6 km/h (4 Bft) 97,95 %
23.11.2025 16:00 1,6 °C 0,6 °C -3,4 °C 88 % 1002,0 hPa 0,2 l/m² 0,00 h 0,00 h 7 W/m² 24,1 km/h (4 Bft) 97,79 %
23.11.2025 17:00 1,0 °C 0,1 °C -3,9 °C 91 % 1001,4 hPa 0,0 l/m² 0,00 h 0,07 h 0 W/m² 22,2 km/h (4 Bft) 95,48 %
23.11.2025 18:00 1,0 °C 0,5 °C -3,5 °C 93 % 1001,1 hPa 0,5 l/m² 0,00 h 0,00 h 0 W/m² 18,5 km/h (3 Bft) 98,96 %
23.11.2025 19:00 1,3 °C 0,9 °C -3,0 °C 95 % 1000,7 hPa 0,5 l/m² 0,00 h 0,00 h 0 W/m² 17,0 km/h (3 Bft) 97,56 %
23.11.2025 20:00 1,6 °C 1,1 °C -2,8 °C 95 % 1000,3 hPa 0,0 l/m² 0,00 h 0,00 h 0 W/m² 18,1 km/h (3 Bft) 96,55 %
23.11.2025 21:00 1,8 °C 1,5 °C -2,4 °C 95 % 1000,0 hPa 0,2 l/m² 0,00 h 0,00 h 0 W/m² 15,8 km/h (3 Bft) 94,89 %
23.11.2025 22:00 2,3 °C 1,9 °C -2,1 °C 95 % 999,6 hPa 0,0 l/m² 0,00 h 0,00 h 0 W/m² 12,8 km/h (3 Bft) 98,72 %
23.11.2025 23:00 2,6 °C 2,3 °C -1,6 °C 95 % 999,0 hPa 0,0 l/m² 0,00 h 0,00 h 0 W/m² 12,1 km/h (2 Bft) 95,61 %
Min-Datum _ 21.11.25 21.11.25 21.11.25 23.11.25 23.11.25 - - - - 17.11.25 17.11.25
_ Min-Zeit 21:58 21:40 20:20 13:44 23:56 - - - - 00:02 00:02
Minimum _ -2,9 °C -3,9 °C -6,1 °C 61 % 998,8 hPa - - - - 0,0 km/h (0 Bft) 6,25 %
Max-Datum _ 17.11.25 21.11.25 17.11.25 17.11.25 21.11.25 19.11.25 21.11.25 19.11.25 20.11.25 17.11.25 17.11.25
_ Max-Zeit 13:32 12:54 12:08 06:54 22:34 16:02 13:12 12:16 12:22 14:28 00:00
Maximum _ 7,9 °C 17,2 °C 3,9 °C 98 % 1029,2 hPa 1,9 l/m² 0,08 h 0,07 h 460 W/m² 41,8 km/h
N-NW (6 Bft)
100,00 %
Durchschnitt _ 2,3 °C 2,2 °C -1,5 °C 90 % 1014,9 hPa #17,5 l/m² #18:58 h #8:31 h 100 W/m² 9,5 km/h (2 Bft) 96,89 %
© 2025 W. Hausmann